createdAt,value
2022-09-07T00:01:11.617Z,13.43
2022-09-07T00:03:39.573Z,13.42
2022-09-07T00:06:11.263Z,13.45
2022-09-07T00:08:41.380Z,13.48
2022-09-07T00:11:17.572Z,13.51
2022-09-07T00:13:48.671Z,13.49
2022-09-07T00:16:21.557Z,13.38
2022-09-07T00:18:50.122Z,13.36
2022-09-07T00:21:18.457Z,13.38
2022-09-07T00:23:49.942Z,13.36
2022-09-07T00:26:23.152Z,13.39
2022-09-07T00:28:52.194Z,13.40
2022-09-07T00:31:23.357Z,13.28
2022-09-07T00:33:54.015Z,13.22
2022-09-07T00:36:22.717Z,13.22
2022-09-07T00:38:51.604Z,13.27
2022-09-07T00:41:22.208Z,13.27
2022-09-07T00:43:54.434Z,13.26
2022-09-07T00:46:26.863Z,13.26
2022-09-07T00:49:08.192Z,13.28
2022-09-07T00:51:56.006Z,13.25
2022-09-07T00:54:32.134Z,13.24
2022-09-07T00:57:00.470Z,13.25
2022-09-07T00:59:46.138Z,13.23
2022-09-07T01:02:17.267Z,13.20
2022-09-07T01:04:51.818Z,13.15
2022-09-07T01:07:20.219Z,13.16
2022-09-07T01:09:48.318Z,13.11
2022-09-07T01:12:16.547Z,13.11
2022-09-07T01:14:50.708Z,13.07
2022-09-07T01:17:31.841Z,13.11
2022-09-07T01:20:43.947Z,13.13
2022-09-07T01:24:01.355Z,13.11
2022-09-07T01:26:57.308Z,12.98
2022-09-07T01:29:39.278Z,12.86
2022-09-07T01:32:16.255Z,12.85
2022-09-07T01:34:52.419Z,12.93
2022-09-07T01:37:43.655Z,12.98
2022-09-07T01:40:19.383Z,12.96
2022-09-07T01:43:00.687Z,12.92
2022-09-07T01:45:34.973Z,12.90
2022-09-07T01:48:09.148Z,12.91
2022-09-07T01:51:05.326Z,12.94
2022-09-07T01:53:42.055Z,12.94
2022-09-07T01:56:23.372Z,12.93
2022-09-07T01:59:04.632Z,12.82
2022-09-07T02:01:58.035Z,12.79
2022-09-07T02:04:35.938Z,12.78
2022-09-07T02:07:21.363Z,12.82
2022-09-07T02:10:02.608Z,12.81
2022-09-07T02:12:56.515Z,12.76
2022-09-07T02:15:39.039Z,12.73
2022-09-07T02:18:10.667Z,12.76
2022-09-07T02:20:42.442Z,12.72
2022-09-07T02:23:19.183Z,12.62
2022-09-07T02:25:55.155Z,12.55
2022-09-07T02:28:29.373Z,12.61
2022-09-07T02:30:57.457Z,12.62
2022-09-07T02:33:26.233Z,12.57
2022-09-07T02:35:55.129Z,12.52
2022-09-07T02:38:23.833Z,12.44
2022-09-07T02:40:57.885Z,12.46
2022-09-07T02:43:28.200Z,12.48
2022-09-07T02:46:22.601Z,12.50
2022-09-07T02:48:59.543Z,12.44
2022-09-07T02:51:47.396Z,12.31
2022-09-07T02:55:06.770Z,12.29
2022-09-07T02:58:16.262Z,12.24
2022-09-07T03:01:08.041Z,12.22
2022-09-07T03:04:25.902Z,12.20
2022-09-07T03:07:27.868Z,12.18
2022-09-07T03:09:58.284Z,12.20
2022-09-07T03:12:41.840Z,12.17
2022-09-07T03:15:13.583Z,12.15
2022-09-07T03:17:43.208Z,12.10
2022-09-07T03:20:11.146Z,12.09
2022-09-07T03:22:39.695Z,12.08
2022-09-07T03:25:08.482Z,12.14
2022-09-07T03:27:36.905Z,12.16
2022-09-07T03:30:07.098Z,12.05
2022-09-07T03:32:37.554Z,12.01
2022-09-07T03:35:08.063Z,12.05
2022-09-07T03:37:37.739Z,11.96
2022-09-07T03:40:09.212Z,11.97
2022-09-07T03:42:37.788Z,11.91
2022-09-07T03:45:07.391Z,11.85
2022-09-07T03:47:37.197Z,11.87
2022-09-07T03:50:07.136Z,11.82
2022-09-07T03:52:37.087Z,11.79
2022-09-07T03:55:05.528Z,11.84
2022-09-07T03:57:34.004Z,11.79
2022-09-07T04:00:04.635Z,11.75
2022-09-07T04:02:40.515Z,11.70
2022-09-07T04:05:08.987Z,11.69
2022-09-07T04:07:37.080Z,11.66
2022-09-07T04:10:05.318Z,11.60
2022-09-07T04:12:33.291Z,11.56
2022-09-07T04:15:01.162Z,11.54
2022-09-07T04:17:29.067Z,11.55
2022-09-07T04:19:57.290Z,11.50
2022-09-07T04:22:25.174Z,11.43
2022-09-07T04:24:53.039Z,11.32
2022-09-07T04:27:20.958Z,11.33
2022-09-07T04:29:48.862Z,11.34
2022-09-07T04:32:16.854Z,11.33
2022-09-07T04:34:44.758Z,11.35
2022-09-07T04:37:12.645Z,11.33
2022-09-07T04:39:40.584Z,11.32
2022-09-07T04:42:08.523Z,11.28
2022-09-07T04:44:36.398Z,11.31
2022-09-07T04:47:04.360Z,11.39
2022-09-07T04:49:32.337Z,11.38
2022-09-07T04:52:00.370Z,11.42
2022-09-07T04:54:28.552Z,11.40
2022-09-07T04:56:56.519Z,11.43
2022-09-07T04:59:25.655Z,11.53
2022-09-07T05:01:53.588Z,11.57
2022-09-07T05:04:21.607Z,11.56
2022-09-07T05:06:49.601Z,11.53
2022-09-07T05:09:17.511Z,11.60
2022-09-07T05:11:45.476Z,11.67
2022-09-07T05:14:13.338Z,11.75
2022-09-07T05:16:41.294Z,11.82
2022-09-07T05:19:12.423Z,11.83
2022-09-07T05:21:40.378Z,11.86
2022-09-07T05:24:09.459Z,11.90
2022-09-07T05:26:39.971Z,11.95
2022-09-07T05:31:56.768Z,12.13
2022-09-07T05:36:56.841Z,12.22
2022-09-07T05:39:25.332Z,12.28
2022-09-07T05:41:53.989Z,12.33
2022-09-07T05:47:11.141Z,12.45
2022-09-07T05:49:39.039Z,12.55
2022-09-07T05:52:07.078Z,12.57
2022-09-07T05:54:35.105Z,12.58
2022-09-07T05:57:03.702Z,12.64
2022-09-07T05:59:31.728Z,12.68
2022-09-07T06:02:00.153Z,12.78
2022-09-07T06:04:28.250Z,12.85
2022-09-07T06:07:18.099Z,12.89
2022-09-07T06:12:32.011Z,13.03
2022-09-07T06:15:01.466Z,13.11
2022-09-07T06:17:31.112Z,13.20
2022-09-07T06:19:59.174Z,13.32
2022-09-07T06:22:30.706Z,13.43
2022-09-07T06:24:59.519Z,13.52
2022-09-07T06:27:27.954Z,13.57
2022-09-07T06:29:56.203Z,13.66
2022-09-07T06:35:13.206Z,13.93
2022-09-07T06:37:41.659Z,14.01
2022-09-07T06:40:12.063Z,14.07
2022-09-07T06:42:40.622Z,14.23
2022-09-07T06:45:11.236Z,14.34
2022-09-07T06:47:40.266Z,14.39
2022-09-07T06:50:10.062Z,14.42
2022-09-07T06:55:28.279Z,14.52
2022-09-07T06:57:56.528Z,14.62
2022-09-07T07:00:25.061Z,14.75
2022-09-07T07:02:53.244Z,14.85
2022-09-07T07:05:21.230Z,15.03
2022-09-07T07:07:49.160Z,15.02
2022-09-07T07:10:19.751Z,15.08
2022-09-07T07:12:53.068Z,15.22
2022-09-07T07:15:21.274Z,15.36
2022-09-07T07:17:56.129Z,15.55
2022-09-07T07:20:27.431Z,15.54
2022-09-07T07:22:55.307Z,15.64
2022-09-07T07:25:23.662Z,15.74
2022-09-07T07:27:51.727Z,15.79
2022-09-07T07:30:20.798Z,15.84
2022-09-07T07:32:48.682Z,15.95
2022-09-07T07:35:16.994Z,16.08
2022-09-07T07:37:44.925Z,16.21
2022-09-07T07:42:46.241Z,16.40
2022-09-07T07:48:03.097Z,16.71
2022-09-07T07:50:31.994Z,16.82
2022-09-07T07:55:49.022Z,16.85
2022-09-07T07:58:17.185Z,16.94
2022-09-07T08:01:00.697Z,16.98
2022-09-07T08:03:29.353Z,17.05
2022-09-07T08:06:04.886Z,17.15
2022-09-07T08:08:32.842Z,17.29
2022-09-07T08:11:08.217Z,17.35
2022-09-07T08:13:38.034Z,17.47
2022-09-07T08:16:06.621Z,17.64
2022-09-07T08:18:35.837Z,17.77
2022-09-07T08:21:11.370Z,17.87
2022-09-07T08:23:41.306Z,17.96
2022-09-07T08:26:09.778Z,18.08
2022-09-07T08:28:41.060Z,18.21
2022-09-07T08:31:14.639Z,18.39
2022-09-07T08:33:43.090Z,18.60
2022-09-07T08:36:19.141Z,18.73
2022-09-07T08:38:47.995Z,18.79
2022-09-07T08:41:47.157Z,19.09
2022-09-07T08:44:38.426Z,19.47
2022-09-07T08:47:44.359Z,19.35
2022-09-07T08:50:25.850Z,19.27
2022-09-07T08:53:20.948Z,19.54
2022-09-07T08:56:11.588Z,19.69
2022-09-07T08:58:53.866Z,19.40
2022-09-07T09:01:37.031Z,19.62
2022-09-07T09:04:20.180Z,20.02
2022-09-07T09:07:17.273Z,19.84
2022-09-07T09:10:19.724Z,20.02
2022-09-07T09:13:18.126Z,20.11
2022-09-07T09:16:05.472Z,20.24
2022-09-07T09:19:16.882Z,20.17
2022-09-07T09:21:45.700Z,20.21
2022-09-07T09:24:19.566Z,20.55
2022-09-07T09:26:54.275Z,20.76
2022-09-07T09:29:23.840Z,20.84
2022-09-07T09:31:53.459Z,20.96
2022-09-07T09:34:23.980Z,20.96
2022-09-07T09:36:56.719Z,20.80
2022-09-07T09:39:33.728Z,20.73
2022-09-07T09:42:22.339Z,20.62
2022-09-07T09:44:50.799Z,20.63
2022-09-07T09:47:38.318Z,20.91
2022-09-07T09:53:34.141Z,21.13
2022-09-07T09:56:04.090Z,21.35
2022-09-07T10:01:35.943Z,21.21
2022-09-07T10:04:24.633Z,21.41
2022-09-07T10:07:12.075Z,21.75
2022-09-07T10:09:49.064Z,21.36
2022-09-07T10:12:32.017Z,21.64
2022-09-07T10:15:03.479Z,21.76
2022-09-07T10:17:48.378Z,21.55
2022-09-07T10:20:16.298Z,21.33
2022-09-07T10:22:57.014Z,21.63
2022-09-07T10:25:40.484Z,21.65
2022-09-07T10:28:15.075Z,21.70
2022-09-07T10:31:11.169Z,21.95
2022-09-07T10:37:16.787Z,22.09
2022-09-07T10:40:20.750Z,21.92
2022-09-07T10:43:21.409Z,22.40
2022-09-07T10:46:14.932Z,22.66
2022-09-07T10:49:15.477Z,22.35
2022-09-07T10:52:07.572Z,22.54
2022-09-07T10:55:07.640Z,22.83
2022-09-07T10:57:49.131Z,22.80
2022-09-07T11:00:20.369Z,22.65
2022-09-07T11:03:29.993Z,22.74
2022-09-07T11:06:10.855Z,22.93
2022-09-07T11:12:03.022Z,22.39
2022-09-07T11:14:50.752Z,22.68
2022-09-07T11:17:24.725Z,23.11
2022-09-07T11:20:44.551Z,23.23
2022-09-07T11:23:29.111Z,23.21
2022-09-07T11:26:39.695Z,22.92
2022-09-07T11:29:32.679Z,22.70
2022-09-07T11:32:12.081Z,22.86
2022-09-07T11:34:46.770Z,23.16
2022-09-07T11:37:57.505Z,23.18
2022-09-07T11:40:35.266Z,23.04
2022-09-07T11:43:20.554Z,23.66
2022-09-07T11:45:55.442Z,23.68
2022-09-07T11:48:42.475Z,24.00
2022-09-07T11:52:05.644Z,24.24
2022-09-07T11:54:45.819Z,23.74
2022-09-07T11:58:00.143Z,23.39
2022-09-07T12:00:46.079Z,23.52
2022-09-07T12:04:26.166Z,23.42
2022-09-07T12:07:35.108Z,23.56
2022-09-07T12:10:26.640Z,23.66
2022-09-07T12:13:10.444Z,24.00
2022-09-07T12:16:09.768Z,23.99
2022-09-07T12:19:15.094Z,23.79
2022-09-07T12:22:05.427Z,23.62
2022-09-07T12:24:48.527Z,25.00
2022-09-07T12:27:22.492Z,25.13
2022-09-07T12:30:01.674Z,24.06
2022-09-07T12:32:56.976Z,24.36
2022-09-07T12:35:31.555Z,24.81
2022-09-07T12:38:00.499Z,24.89
2022-09-07T12:40:28.695Z,24.59
2022-09-07T12:43:14.703Z,24.58
2022-09-07T12:45:42.615Z,24.29
2022-09-07T12:48:16.229Z,24.42
2022-09-07T12:50:56.096Z,24.05
2022-09-07T12:54:14.535Z,23.87
2022-09-07T12:57:34.929Z,24.37
2022-09-07T13:00:24.306Z,24.44
2022-09-07T13:03:50.101Z,24.29
2022-09-07T13:09:41.675Z,25.15
2022-09-07T13:15:48.899Z,24.56
2022-09-07T13:18:26.645Z,24.63
2022-09-07T13:21:18.402Z,24.93
2022-09-07T13:27:27.522Z,24.47
2022-09-07T13:30:05.158Z,24.85
2022-09-07T13:35:24.667Z,25.24
2022-09-07T13:38:02.102Z,25.12
2022-09-07T13:40:34.938Z,24.34
2022-09-07T13:43:04.467Z,24.34
2022-09-07T13:45:53.593Z,24.19
2022-09-07T13:48:49.024Z,24.02
2022-09-07T13:51:31.175Z,23.50
2022-09-07T13:54:08.452Z,23.43
2022-09-07T13:57:06.605Z,23.91
2022-09-07T13:59:35.430Z,24.13
2022-09-07T14:02:03.655Z,24.04
2022-09-07T14:04:41.823Z,24.14
2022-09-07T14:07:16.511Z,24.35
2022-09-07T14:09:44.467Z,23.90
2022-09-07T14:12:16.485Z,23.74
2022-09-07T14:14:44.587Z,23.94
2022-09-07T14:17:19.327Z,23.89
2022-09-07T14:19:51.508Z,23.66
2022-09-07T14:22:30.902Z,23.90
2022-09-07T14:25:01.798Z,24.02
2022-09-07T14:27:37.778Z,23.74
2022-09-07T14:30:33.390Z,23.72
2022-09-07T14:33:17.121Z,23.86
2022-09-07T14:35:45.049Z,23.82
2022-09-07T14:41:20.854Z,23.71
2022-09-07T14:43:58.283Z,23.85
2022-09-07T14:46:30.782Z,23.85
2022-09-07T14:49:03.203Z,23.80
2022-09-07T14:51:36.846Z,24.09
2022-09-07T14:54:07.903Z,23.73
2022-09-07T14:56:41.990Z,23.59
2022-09-07T14:59:38.826Z,23.45
2022-09-07T15:02:18.786Z,23.48
2022-09-07T15:04:49.542Z,23.61
2022-09-07T15:07:47.352Z,23.43
2022-09-07T15:10:21.148Z,23.76
2022-09-07T15:12:51.776Z,23.61
2022-09-07T15:15:35.351Z,23.88
2022-09-07T15:18:26.748Z,24.14
2022-09-07T15:20:54.756Z,23.74
2022-09-07T15:23:22.617Z,23.40
2022-09-07T15:25:53.687Z,23.27
2022-09-07T15:34:16.216Z,23.14
2022-09-07T15:36:52.493Z,23.07
2022-09-07T15:39:30.278Z,23.10
2022-09-07T15:42:00.517Z,22.95
2022-09-07T15:44:46.934Z,22.93
2022-09-07T15:50:05.553Z,22.28
2022-09-07T15:52:33.803Z,22.29
2022-09-07T15:55:01.745Z,22.24
2022-09-07T16:00:19.714Z,22.37
2022-09-07T16:03:06.100Z,22.20
2022-09-07T16:05:34.989Z,22.15
2022-09-07T16:10:55.143Z,22.23
2022-09-07T16:13:24.321Z,22.13
2022-09-07T16:15:52.487Z,22.06
2022-09-07T16:18:20.378Z,22.07
2022-09-07T16:20:52.730Z,21.97
2022-09-07T16:23:21.277Z,21.86
2022-09-07T16:25:58.505Z,21.81
2022-09-07T16:28:27.280Z,21.79
2022-09-07T16:30:56.286Z,21.82
2022-09-07T16:33:34.350Z,21.81
2022-09-07T16:36:10.163Z,21.68
2022-09-07T16:38:47.052Z,21.57
2022-09-07T16:41:20.483Z,21.53
2022-09-07T16:43:49.698Z,21.49
2022-09-07T16:46:24.693Z,21.44
2022-09-07T16:48:53.460Z,21.44
2022-09-07T16:51:28.575Z,21.40
2022-09-07T16:54:07.368Z,21.31
2022-09-07T16:56:39.042Z,21.23
2022-09-07T16:59:11.222Z,21.19
2022-09-07T17:01:39.783Z,21.09
2022-09-07T17:04:17.250Z,21.03
2022-09-07T17:06:48.151Z,20.98
2022-09-07T17:09:19.072Z,20.90
2022-09-07T17:11:50.332Z,20.85
2022-09-07T17:14:26.190Z,20.76
2022-09-07T17:16:59.023Z,20.68
2022-09-07T17:19:34.727Z,20.58
2022-09-07T17:22:03.908Z,20.54
2022-09-07T17:24:32.611Z,20.50
2022-09-07T17:27:01.484Z,20.46
2022-09-07T17:29:37.216Z,20.40
2022-09-07T17:34:55.349Z,20.28
2022-09-07T17:37:23.263Z,20.18
2022-09-07T17:39:51.852Z,20.15
2022-09-07T17:42:20.070Z,20.07
2022-09-07T17:44:52.789Z,20.01
2022-09-07T17:47:21.346Z,19.97
2022-09-07T17:49:49.169Z,19.93
2022-09-07T17:52:17.140Z,19.84
2022-09-07T17:54:45.097Z,19.77
2022-09-07T17:57:12.986Z,19.73
2022-09-07T18:02:37.956Z,19.58
2022-09-07T18:05:07.463Z,19.46
2022-09-07T18:07:35.477Z,19.37
2022-09-07T18:10:03.641Z,19.32
2022-09-07T18:12:32.765Z,19.29
2022-09-07T18:15:01.142Z,19.27
2022-09-07T18:17:28.998Z,19.20
2022-09-07T18:19:57.325Z,19.14
2022-09-07T18:22:25.310Z,19.13
2022-09-07T18:24:53.263Z,19.15
2022-09-07T18:27:21.422Z,19.17
2022-09-07T18:29:49.266Z,19.12
2022-09-07T18:32:17.757Z,19.09
2022-09-07T18:34:50.226Z,19.11
2022-09-07T18:37:19.510Z,19.10
2022-09-07T18:39:48.686Z,19.11
2022-09-07T18:42:17.089Z,19.11
2022-09-07T18:47:34.951Z,19.08
2022-09-07T18:50:03.373Z,19.06
2022-09-07T18:55:19.303Z,19.05
2022-09-07T18:57:47.383Z,19.10
2022-09-07T19:00:15.405Z,19.04
2022-09-07T19:02:43.292Z,19.03
2022-09-07T19:07:59.769Z,18.99
2022-09-07T19:10:28.277Z,18.96
2022-09-07T19:12:59.035Z,18.88
2022-09-07T19:15:27.111Z,18.87
2022-09-07T19:17:55.036Z,18.91
2022-09-07T19:20:22.937Z,18.86
2022-09-07T19:22:50.939Z,18.79
2022-09-07T19:25:19.411Z,18.76
2022-09-07T19:27:47.422Z,18.74
2022-09-07T19:30:17.279Z,18.73
2022-09-07T19:32:45.174Z,18.69
2022-09-07T19:35:13.038Z,18.70
2022-09-07T19:37:40.999Z,18.63
2022-09-07T19:40:14.804Z,18.59
2022-09-07T19:42:46.571Z,18.58
2022-09-07T19:45:15.468Z,18.55
2022-09-07T19:47:43.412Z,18.44
2022-09-07T19:50:11.385Z,18.43
2022-09-07T19:52:39.220Z,18.34
2022-09-07T19:55:07.991Z,18.32
2022-09-07T19:57:35.927Z,18.27
2022-09-07T20:00:04.992Z,18.18
2022-09-07T20:02:40.256Z,18.10
2022-09-07T20:05:08.458Z,18.10
2022-09-07T20:07:36.331Z,18.03
2022-09-07T20:10:04.643Z,17.96
2022-09-07T20:12:32.654Z,17.98
2022-09-07T20:15:00.578Z,17.94
2022-09-07T20:17:33.054Z,17.88
2022-09-07T20:20:04.552Z,17.83
2022-09-07T20:22:32.453Z,17.82
2022-09-07T20:25:00.251Z,17.81
2022-09-07T20:27:28.135Z,17.80
2022-09-07T20:29:56.102Z,17.76
2022-09-07T20:32:24.472Z,17.73
2022-09-07T20:34:53.087Z,17.71
2022-09-07T20:37:20.968Z,17.73
2022-09-07T20:39:48.888Z,17.70
2022-09-07T20:42:16.748Z,17.62
2022-09-07T20:44:45.129Z,17.55
2022-09-07T20:47:13.073Z,17.50
2022-09-07T20:49:40.918Z,17.49
2022-09-07T20:52:08.735Z,17.54
2022-09-07T20:54:38.689Z,17.49
2022-09-07T20:57:06.526Z,17.50
2022-09-07T20:59:34.407Z,17.43
2022-09-07T21:02:02.340Z,17.43
2022-09-07T21:04:30.398Z,17.40
2022-09-07T21:06:58.255Z,17.37
2022-09-07T21:09:26.125Z,17.33
2022-09-07T21:11:57.167Z,17.32
2022-09-07T21:14:25.239Z,17.28
2022-09-07T21:16:53.232Z,17.30
2022-09-07T21:19:21.220Z,17.28
2022-09-07T21:21:49.352Z,17.26
2022-09-07T21:24:20.753Z,17.20
2022-09-07T21:26:50.353Z,17.19
2022-09-07T21:29:22.836Z,17.10
2022-09-07T21:31:54.407Z,17.02
2022-09-07T21:34:22.858Z,17.01
2022-09-07T21:36:50.911Z,17.03
2022-09-07T21:39:19.298Z,16.99
2022-09-07T21:41:47.102Z,16.91
2022-09-07T21:44:16.602Z,16.89
2022-09-07T21:46:44.654Z,16.86
2022-09-07T21:49:12.745Z,16.90
2022-09-07T21:51:40.586Z,16.84
2022-09-07T21:54:08.750Z,16.85
2022-09-07T21:56:36.600Z,16.82
2022-09-07T21:59:06.505Z,16.83
2022-09-07T22:01:34.437Z,16.78
2022-09-07T22:04:06.935Z,16.80
2022-09-07T22:06:35.848Z,16.82
2022-09-07T22:09:05.053Z,16.82
2022-09-07T22:11:33.099Z,16.83
2022-09-07T22:14:03.725Z,16.76
2022-09-07T22:16:34.485Z,16.72
2022-09-07T22:19:03.013Z,16.70
2022-09-07T22:21:31.190Z,16.67
2022-09-07T22:24:05.238Z,16.65
2022-09-07T22:26:39.938Z,16.64
2022-09-07T22:29:11.654Z,16.68
2022-09-07T22:31:41.018Z,16.65
2022-09-07T22:34:10.294Z,16.64
2022-09-07T22:36:43.934Z,16.59
2022-09-07T22:39:16.055Z,16.60
2022-09-07T22:41:45.838Z,16.59
2022-09-07T22:44:16.795Z,16.54
2022-09-07T22:46:47.129Z,16.54
2022-09-07T22:49:17.350Z,16.52
2022-09-07T22:51:45.839Z,16.56
2022-09-07T22:54:13.947Z,16.56
2022-09-07T22:56:41.912Z,16.51
2022-09-07T22:59:10.448Z,16.52
2022-09-07T23:01:38.907Z,16.51
2022-09-07T23:04:08.578Z,16.48
2022-09-07T23:06:40.051Z,16.45
2022-09-07T23:09:14.635Z,16.47
2022-09-07T23:11:44.125Z,16.43
2022-09-07T23:14:24.674Z,16.42
2022-09-07T23:16:52.513Z,16.41
2022-09-07T23:19:20.982Z,16.38
2022-09-07T23:21:49.272Z,16.38
2022-09-07T23:24:19.244Z,16.35
2022-09-07T23:26:48.088Z,16.33
2022-09-07T23:29:16.459Z,16.30
2022-09-07T23:31:46.323Z,16.32
2022-09-07T23:34:14.214Z,16.31
2022-09-07T23:36:42.092Z,16.27
2022-09-07T23:39:09.981Z,16.25
2022-09-07T23:41:37.787Z,16.23
2022-09-07T23:44:06.002Z,16.20
2022-09-07T23:46:34.671Z,16.17
2022-09-07T23:49:02.607Z,16.16
2022-09-07T23:51:30.423Z,16.17
2022-09-07T23:53:58.268Z,16.15
2022-09-07T23:56:26.373Z,16.08
2022-09-07T23:58:54.506Z,16.09
